Time;durP1;ratioP1;P1;durP2;ratioP2;P2;SDS_P1;SDS_P2;PMS_P1;PMS_P2;Temp;Humidity;BMP_temperature;BMP_pressure;BME280_temperature;BME280_humidity;BME280_pressure;Samples;Min_cycle;Max_cycle;Signal;HPM_P1;HPM_P2
2022/07/29 00:01:33;;;;;;;10.55;1.38;;;;;;;18.69;86.50;101300.75;5071932;28;20068;-83
2022/07/29 00:03:59;;;;;;;4.30;1.30;;;;;;;18.69;86.30;101295.22;5068683;28;20041;-84
2022/07/29 00:06:24;;;;;;;4.78;0.93;;;;;;;18.74;86.04;101292.81;5059814;28;20033;-83
2022/07/29 00:08:50;;;;;;;3.90;1.00;;;;;;;18.77;87.56;101309.13;5077072;28;20055;-83
2022/07/29 00:11:15;;;;;;;6.50;1.00;;;;;;;18.72;88.01;101305.97;5036097;28;20048;-83
2022/07/29 00:13:41;;;;;;;8.35;1.33;;;;;;;18.66;88.32;101309.41;5057733;28;20043;-83
2022/07/29 00:16:06;;;;;;;6.28;1.08;;;;;;;18.67;88.88;101303.69;5047234;28;20048;-83
2022/07/29 00:18:32;;;;;;;7.72;1.38;;;;;;;18.53;89.06;101296.88;5072547;28;20504;-83
2022/07/29 00:20:57;;;;;;;12.38;1.38;;;;;;;18.70;88.28;101303.38;5079098;28;20049;-83
2022/07/29 00:23:23;;;;;;;7.93;1.42;;;;;;;18.72;90.83;101306.84;5062955;28;20036;-83
2022/07/29 00:25:48;;;;;;;5.32;2.03;;;;;;;18.33;100.00;101289.75;5060012;28;20033;-83
2022/07/29 00:28:14;;;;;;;25.70;3.88;;;;;;;17.61;100.00;101274.06;5073378;28;20043;-84
2022/07/29 00:30:42;;;;;;;16.00;4.05;;;;;;;17.00;100.00;101266.41;5074305;28;20056;-82
2022/07/29 00:33:08;;;;;;;30.38;5.97;;;;;;;16.79;100.00;101273.06;5072576;28;20033;-82
2022/07/29 00:35:46;;;;;;;20.30;4.60;;;;;;;16.37;100.00;101265.19;5052715;28;20025;-81
2022/07/29 00:38:16;;;;;;;13.20;3.75;;;;;;;16.20;100.00;101272.34;5072387;28;20078;-82
2022/07/29 00:40:43;;;;;;;16.08;4.35;;;;;;;16.03;100.00;101270.34;5073157;28;20028;-81
2022/07/29 00:43:09;;;;;;;12.30;3.85;;;;;;;16.05;100.00;101273.81;5058339;28;20054;-82
2022/07/29 00:45:34;;;;;;;9.70;4.05;;;;;;;15.99;100.00;101270.63;5071105;28;20381;-81
2022/07/29 00:48:00;;;;;;;15.52;5.80;;;;;;;15.95;100.00;101277.47;5076592;28;20028;-81
2022/07/29 00:50:26;;;;;;;8.30;5.15;;;;;;;15.72;100.00;101262.16;5065570;28;20090;-81
2022/07/29 00:52:52;;;;;;;11.60;3.95;;;;;;;15.54;100.00;101292.38;5061676;28;20404;-81
2022/07/29 00:55:18;;;;;;;10.20;5.10;;;;;;;15.68;100.00;101291.09;5070690;28;20105;-81
2022/07/29 00:57:45;;;;;;;10.43;4.72;;;;;;;15.51;100.00;101303.69;5061362;28;20069;-82
2022/07/29 01:00:15;;;;;;;9.73;4.82;;;;;;;15.57;100.00;101305.88;5041195;28;20051;-82
2022/07/29 01:02:41;;;;;;;12.68;5.60;;;;;;;15.50;100.00;101329.56;5072659;28;20039;-82
2022/07/29 01:05:07;;;;;;;12.18;5.57;;;;;;;15.60;100.00;101347.00;5070835;28;20028;-81
2022/07/29 01:07:35;;;;;;;18.25;7.47;;;;;;;15.81;100.00;101357.97;5089970;28;20036;-82
2022/07/29 01:10:03;;;;;;;23.95;9.55;;;;;;;15.72;100.00;101361.56;5079410;28;20564;-82
2022/07/29 01:12:33;;;;;;;21.15;7.75;;;;;;;15.66;100.00;101354.72;5061964;28;20517;-83
2022/07/29 01:15:00;;;;;;;21.65;7.63;;;;;;;15.49;100.00;101367.31;5076113;28;20044;-82
2022/07/29 01:18:01;;;;;;;27.35;8.70;;;;;;;15.65;100.00;101365.91;5092594;28;20506;-81
2022/07/29 01:20:47;;;;;;;31.20;10.43;;;;;;;15.46;100.00;101378.63;5074099;28;20036;-82
2022/07/29 01:23:36;;;;;;;32.58;11.18;;;;;;;15.36;100.00;101380.50;5077067;28;20074;-82
2022/07/29 01:26:35;;;;;;;52.55;15.48;;;;;;;15.70;100.00;101369.13;5068740;28;20383;-83
2022/07/29 01:29:36;;;;;;;37.08;14.10;;;;;;;15.69;100.00;101354.44;5080321;28;20078;-82
2022/07/29 01:32:07;;;;;;;44.55;12.48;;;;;;;15.49;100.00;101339.72;5036070;28;20044;-82
2022/07/29 01:34:47;;;;;;;31.30;11.10;;;;;;;15.63;100.00;101321.88;5059076;28;20055;-82
2022/07/29 01:37:25;;;;;;;23.55;9.32;;;;;;;15.50;100.00;101301.97;5079102;28;20040;-82
2022/07/29 01:39:56;;;;;;;18.98;9.13;;;;;;;15.46;100.00;101276.50;5063921;28;20028;-82
2022/07/29 01:42:24;;;;;;;14.70;6.47;;;;;;;15.34;100.00;101269.41;5075196;28;20382;-82
2022/07/29 01:45:01;;;;;;;14.68;6.80;;;;;;;15.27;100.00;101268.22;5059879;28;20032;-81
2022/07/29 01:47:34;;;;;;;16.27;6.50;;;;;;;15.25;100.00;101258.19;5095069;28;20100;-82
2022/07/29 01:50:01;;;;;;;;;;;;;;;15.28;100.00;101256.16;5078379;28;20168;-82
2022/07/29 01:52:52;;;;;;;10.00;5.25;;;;;;;15.28;100.00;101259.78;5060976;28;20014;-82
2022/07/29 01:55:21;;;;;;;5.90;4.68;;;;;;;15.20;100.00;101249.47;5072679;28;20028;-81
2022/07/29 01:57:49;;;;;;;8.88;4.97;;;;;;;15.29;100.00;101235.84;5073389;28;20111;-82
2022/07/29 02:00:16;;;;;;;7.30;4.72;;;;;;;15.03;100.00;101234.47;5078567;28;20056;-82
2022/07/29 02:02:44;;;;;;;12.38;5.85;;;;;;;14.99;100.00;101227.50;5062212;28;20032;-82
2022/07/29 02:05:14;;;;;;;5.43;3.65;;;;;;;14.98;100.00;101227.66;5057553;28;20031;-82
2022/07/29 02:07:46;;;;;;;8.70;5.22;;;;;;;14.96;100.00;101229.69;5075157;28;20023;-82
2022/07/29 02:10:13;;;;;;;10.15;5.25;;;;;;;15.12;100.00;101229.13;5050846;28;20036;-82
2022/07/29 02:12:40;;;;;;;11.27;4.72;;;;;;;14.94;100.00;101229.81;5060214;28;20042;-83
2022/07/29 02:15:07;;;;;;;11.18;4.28;;;;;;;14.89;100.00;101229.38;5063601;28;20032;-82
2022/07/29 02:17:39;;;;;;;7.93;4.43;;;;;;;14.77;100.00;101208.44;5062755;28;20050;-82
2022/07/29 02:20:05;;;;;;;11.60;4.55;;;;;;;14.92;100.00;101212.56;5079165;28;20395;-83
2022/07/29 02:22:35;;;;;;;8.43;4.35;;;;;;;14.90;100.00;101211.81;5092825;28;20044;-82
2022/07/29 02:25:01;;;;;;;7.88;5.20;;;;;;;14.98;100.00;101198.19;5058654;28;20032;-83
2022/07/29 02:27:29;;;;;;;16.45;4.57;;;;;;;14.89;100.00;101186.13;5058054;28;20040;-83
2022/07/29 02:29:58;;;;;;;11.10;5.47;;;;;;;14.91;100.00;101158.41;5078175;28;20036;-82
2022/07/29 02:32:25;;;;;;;12.18;5.10;;;;;;;14.82;100.00;101160.16;5069845;28;20036;-82
2022/07/29 02:34:52;;;;;;;10.90;4.45;;;;;;;14.82;100.00;101159.25;5057901;28;20043;-82
2022/07/29 02:37:18;;;;;;;8.43;3.85;;;;;;;14.71;100.00;101163.03;5077430;28;20043;-82
2022/07/29 02:39:45;;;;;;;7.93;4.10;;;;;;;14.71;100.00;101171.28;5076182;28;20540;-81
2022/07/29 02:42:14;;;;;;;10.18;5.28;;;;;;;14.82;100.00;101171.19;5059811;28;20053;-82
2022/07/29 02:44:40;;;;;;;9.10;5.03;;;;;;;14.81;100.00;101161.16;5059802;28;20025;-82
2022/07/29 02:47:12;;;;;;;10.30;4.55;;;;;;;14.84;100.00;101163.63;5070034;28;20393;-82
2022/07/29 02:49:48;;;;;;;8.25;5.55;;;;;;;14.87;100.00;101156.94;5075620;28;20089;-82
2022/07/29 02:52:21;;;;;;;8.32;5.00;;;;;;;14.84;100.00;101171.03;5070645;28;20048;-82
2022/07/29 02:55:14;;;;;;;9.40;4.43;;;;;;;14.86;100.00;101180.03;5061601;28;20032;-82
2022/07/29 02:57:51;;;;;;;13.80;4.47;;;;;;;14.74;100.00;101192.16;5058637;28;20033;-82
2022/07/29 03:00:17;;;;;;;12.32;5.30;;;;;;;14.80;100.00;101188.84;5074494;28;20035;-82
2022/07/29 03:02:50;;;;;;;11.55;5.03;;;;;;;14.78;100.00;101194.50;5092022;28;20036;-82
2022/07/29 03:05:19;;;;;;;11.77;4.80;;;;;;;14.82;100.00;101192.34;5077382;28;20024;-82
2022/07/29 03:07:53;;;;;;;12.23;5.72;;;;;;;14.87;100.00;101185.41;5060656;28;20034;-82
2022/07/29 03:10:19;;;;;;;13.35;5.60;;;;;;;14.82;100.00;101192.34;5074359;28;20032;-82
2022/07/29 03:12:45;;;;;;;12.43;5.68;;;;;;;14.76;100.00;101196.53;5059348;28;20081;-82
2022/07/29 03:15:11;;;;;;;7.78;5.57;;;;;;;14.88;100.00;101203.66;5047477;28;20086;-83
2022/07/29 03:17:37;;;;;;;10.77;6.00;;;;;;;14.77;100.00;101200.16;5091767;28;20434;-82
2022/07/29 03:20:04;;;;;;;12.90;6.28;;;;;;;14.65;100.00;101188.38;5055644;28;20028;-82
2022/07/29 03:22:30;;;;;;;9.23;4.65;;;;;;;14.66;100.00;101199.28;5057538;28;20067;-82
2022/07/29 03:24:57;;;;;;;8.63;5.30;;;;;;;14.72;100.00;101208.84;5089931;28;20111;-82
2022/07/29 03:27:23;;;;;;;8.65;4.63;;;;;;;14.74;100.00;101217.88;5074870;28;20035;-82
2022/07/29 03:29:48;;;;;;;11.73;5.18;;;;;;;14.70;100.00;101220.00;5074533;28;20502;-83
2022/07/29 03:32:13;;;;;;;11.50;6.75;;;;;;;14.80;100.00;101219.19;5059723;28;20036;-82
2022/07/29 03:34:39;;;;;;;12.00;6.18;;;;;;;14.75;100.00;101222.34;5043252;28;20055;-83
2022/07/29 03:37:05;;;;;;;14.05;7.15;;;;;;;14.81;100.00;101232.81;5048339;28;20525;-83
2022/07/29 03:39:36;;;;;;;10.48;5.13;;;;;;;14.81;100.00;101232.81;5071286;28;20483;-84
2022/07/29 03:42:05;;;;;;;6.85;5.32;;;;;;;14.94;100.00;101234.44;5083915;28;20072;-83
2022/07/29 03:44:31;;;;;;;9.85;5.90;;;;;;;14.80;100.00;101221.94;5059374;28;20036;-83
2022/07/29 03:47:01;;;;;;;14.05;7.85;;;;;;;14.79;100.00;101210.06;5073793;28;20030;-83
2022/07/29 03:49:27;;;;;;;7.60;6.13;;;;;;;14.63;100.00;101198.69;5060157;28;20032;-83
2022/07/29 03:51:54;;;;;;;11.25;7.10;;;;;;;14.74;100.00;101214.22;5071623;28;20499;-83
2022/07/29 03:54:19;;;;;;;13.43;6.65;;;;;;;14.66;100.00;101214.94;5061829;28;20063;-82
2022/07/29 03:56:47;;;;;;;10.82;6.43;;;;;;;14.68;100.00;101229.44;5064337;28;20035;-83
2022/07/29 03:59:14;;;;;;;13.43;9.07;;;;;;;14.78;100.00;101222.06;5072494;28;20028;-83
2022/07/29 04:01:41;;;;;;;12.75;6.57;;;;;;;14.65;100.00;101210.44;5075414;28;20032;-83
2022/07/29 04:04:07;;;;;;;10.60;7.85;;;;;;;14.74;100.00;101217.88;5043287;28;20047;-83
2022/07/29 04:06:42;;;;;;;14.57;8.50;;;;;;;14.72;100.00;101210.75;5069449;28;20123;-83
2022/07/29 04:09:08;;;;;;;10.35;7.13;;;;;;;14.63;100.00;101221.59;5076519;28;20027;-82
2022/07/29 04:11:35;;;;;;;15.57;7.97;;;;;;;14.57;100.00;101222.09;5052319;28;20389;-83
2022/07/29 04:14:01;;;;;;;11.38;7.75;;;;;;;14.51;100.00;101209.75;5075504;28;20080;-83
2022/07/29 04:16:27;;;;;;;18.40;8.55;;;;;;;14.37;100.00;101201.88;5058564;28;20036;-82
2022/07/29 04:18:52;;;;;;;14.75;8.90;;;;;;;14.46;100.00;101213.94;5043296;28;20042;-83
2022/07/29 04:21:18;;;;;;;11.27;7.82;;;;;;;14.37;100.00;101196.34;5044470;28;20399;-83
2022/07/29 04:23:45;;;;;;;13.77;8.68;;;;;;;14.33;100.00;101198.53;5076773;28;20039;-83
2022/07/29 04:26:11;;;;;;;13.50;8.05;;;;;;;14.35;100.00;101195.63;5052159;28;20032;-83
2022/07/29 04:28:39;;;;;;;14.80;9.10;;;;;;;14.39;100.00;101190.72;5069225;28;20051;-80
2022/07/29 04:31:04;;;;;;;11.82;7.43;;;;;;;14.35;100.00;101190.13;5076208;28;20048;-82
2022/07/29 04:33:30;;;;;;;20.42;8.02;;;;;;;14.28;100.00;101195.31;5090362;28;20056;-81
2022/07/29 04:35:56;;;;;;;19.13;8.35;;;;;;;14.43;100.00;101197.66;5071931;28;20036;-81
2022/07/29 04:38:21;;;;;;;11.30;7.18;;;;;;;14.33;100.00;101205.88;5092416;28;20035;-82
2022/07/29 04:40:47;;;;;;;16.60;8.00;;;;;;;14.34;100.00;101215.91;5044434;28;20095;-81
2022/07/29 04:43:14;;;;;;;12.98;8.68;;;;;;;14.25;100.00;101223.13;5043587;28;20119;-82
2022/07/29 04:45:40;;;;;;;17.60;8.40;;;;;;;14.38;100.00;101233.03;5096357;28;20024;-82
2022/07/29 04:48:06;;;;;;;12.70;8.27;;;;;;;14.30;100.00;101228.22;5023942;28;20047;-82
2022/07/29 04:50:32;;;;;;;10.55;8.50;;;;;;;14.44;100.00;101238.00;5056571;28;20109;-81
2022/07/29 04:52:58;;;;;;;12.23;9.23;;;;;;;14.42;100.00;101231.75;5093026;28;20037;-81
2022/07/29 04:55:23;;;;;;;15.30;10.13;;;;;;;14.55;100.00;101242.56;5062674;28;20043;-82
2022/07/29 04:57:50;;;;;;;21.30;10.57;;;;;;;14.62;100.00;101241.88;5063601;28;20028;-81
2022/07/29 05:00:15;;;;;;;14.55;8.82;;;;;;;14.47;100.00;101222.06;5063955;28;20059;-82
2022/07/29 05:02:41;;;;;;;12.38;8.85;;;;;;;14.43;100.00;101220.59;5095717;28;20032;-82
2022/07/29 05:05:07;;;;;;;19.02;9.85;;;;;;;14.46;100.00;101220.34;5048619;28;20099;-80
2022/07/29 05:07:34;;;;;;;15.93;8.93;;;;;;;14.50;100.00;101230.06;5088514;28;20063;-81
2022/07/29 05:10:00;;;;;;;15.85;8.52;;;;;;;14.53;100.00;101232.53;5081301;28;20032;-81
2022/07/29 05:12:25;;;;;;;15.25;10.15;;;;;;;14.62;100.00;101228.09;5093397;28;20357;-81
2022/07/29 05:14:51;;;;;;;16.80;9.38;;;;;;;14.69;100.00;101236.69;5091954;28;20032;-81
2022/07/29 05:17:17;;;;;;;17.65;8.20;;;;;;;14.62;100.00;101243.78;5104824;28;20026;-81
2022/07/29 05:19:43;;;;;;;12.55;10.35;;;;;;;14.68;100.00;101232.22;5053657;28;20062;-81
2022/07/29 05:22:08;;;;;;;17.10;11.07;;;;;;;14.79;100.00;101231.22;5071974;28;20040;-81
2022/07/29 05:24:34;;;;;;;16.42;11.30;;;;;;;14.75;100.00;101236.13;5091421;28;20039;-81
2022/07/29 05:26:59;;;;;;;21.08;11.65;;;;;;;14.82;100.00;101233.69;5061134;28;20032;-81
2022/07/29 05:29:25;;;;;;;17.52;11.43;;;;;;;14.81;100.00;101221.81;5052818;28;20066;-81
2022/07/29 05:31:51;;;;;;;13.40;9.02;;;;;;;14.73;100.00;101235.41;5081683;28;22847;-82
2022/07/29 05:34:18;;;;;;;20.33;11.35;;;;;;;14.85;100.00;101233.41;5070921;28;20055;-82
2022/07/29 05:36:44;;;;;;;19.73;10.77;;;;;;;14.88;100.00;101238.66;5068437;28;20039;-81
2022/07/29 05:39:10;;;;;;;20.95;9.57;;;;;;;14.74;100.00;101225.25;5081280;28;20029;-82
2022/07/29 05:41:36;;;;;;;21.67;9.80;;;;;;;14.73;100.00;101229.91;5072367;28;20028;-82
2022/07/29 05:44:02;;;;;;;14.30;9.88;;;;;;;14.78;100.00;101235.84;5055517;28;20118;-82
2022/07/29 05:46:28;;;;;;;15.25;10.63;;;;;;;14.67;100.00;101230.44;5069097;28;20123;-82
2022/07/29 05:48:54;;;;;;;15.68;8.98;;;;;;;14.62;100.00;101243.78;5085663;28;20444;-82
2022/07/29 05:51:20;;;;;;;15.35;8.55;;;;;;;14.53;100.00;101254.59;5051749;28;20135;-81
2022/07/29 05:53:45;;;;;;;22.10;12.13;;;;;;;14.78;100.00;101260.66;5093324;28;20064;-82
2022/07/29 05:56:11;;;;;;;16.13;11.40;;;;;;;14.79;100.00;101251.41;5076382;28;20052;-81
2022/07/29 05:58:36;;;;;;;21.10;12.40;;;;;;;14.76;100.00;101243.41;5053742;28;20548;-81
2022/07/29 06:01:02;;;;;;;18.60;11.88;;;;;;;14.77;100.00;101249.78;5085932;28;20036;-81
2022/07/29 06:03:28;;;;;;;23.45;12.13;;;;;;;14.65;100.00;101236.09;5100222;28;20042;-81
2022/07/29 06:05:54;;;;;;;24.35;11.75;;;;;;;14.57;100.00;101237.78;5066274;28;20032;-82
2022/07/29 06:08:19;;;;;;;20.77;12.77;;;;;;;14.67;100.00;101239.56;5076573;28;20036;-82
2022/07/29 06:10:45;;;;;;;23.77;11.60;;;;;;;14.61;100.00;101229.13;5026472;28;20052;-80
2022/07/29 06:13:11;;;;;;;21.00;11.45;;;;;;;14.57;100.00;101227.63;5060462;28;20042;-82
2022/07/29 06:15:37;;;;;;;27.92;12.70;;;;;;;14.49;100.00;101227.44;5080464;28;20024;-82
2022/07/29 06:18:03;;;;;;;17.38;10.25;;;;;;;14.39;100.00;101229.28;5036453;28;20044;-81
2022/07/29 06:20:29;;;;;;;21.65;11.45;;;;;;;14.38;100.00;101222.91;5098104;28;20044;-81
2022/07/29 06:22:56;;;;;;;19.55;11.25;;;;;;;14.41;100.00;101239.13;5077023;28;20104;-80
2022/07/29 06:25:21;;;;;;;18.17;10.63;;;;;;;14.44;100.00;101243.50;5079119;28;20031;-82
2022/07/29 06:27:47;;;;;;;26.98;12.07;;;;;;;14.53;100.00;101235.28;5063298;28;20037;-81
2022/07/29 06:30:13;;;;;;;18.08;12.00;;;;;;;14.48;100.00;101239.50;5078336;28;20036;-80
2022/07/29 06:32:39;;;;;;;19.17;11.30;;;;;;;14.43;100.00;101216.97;5096551;28;20035;-80
2022/07/29 06:35:06;;;;;;;27.75;13.25;;;;;;;14.47;100.00;101212.94;5078340;28;20052;-83
2022/07/29 06:37:31;;;;;;;18.98;12.07;;;;;;;14.33;100.00;101209.53;5098702;28;20031;-80
2022/07/29 06:42:57;;;;;;;19.70;12.52;;;;;;;14.44;100.00;101226.97;5009086;28;20566;-81
2022/07/29 06:45:24;;;;;;;14.35;11.18;;;;;;;14.29;100.00;101234.72;5055420;28;20134;-82
2022/07/29 06:47:49;;;;;;;20.50;11.95;;;;;;;14.28;100.00;101236.63;5064618;28;20062;-82
2022/07/29 06:50:15;;;;;;;22.77;11.48;;;;;;;14.36;100.00;101249.69;5080242;28;20053;-82
2022/07/29 06:52:41;;;;;;;23.92;11.80;;;;;;;14.32;100.00;101253.75;5035051;28;20041;-82
2022/07/29 06:55:07;;;;;;;19.05;12.15;;;;;;;14.36;100.00;101246.94;5061249;28;20036;-84
2022/07/29 06:57:33;;;;;;;19.50;13.50;;;;;;;14.55;100.00;101259.97;5061182;28;20484;-81
2022/07/29 06:59:59;;;;;;;22.80;13.35;;;;;;;14.63;100.00;101251.03;5057137;28;20034;-82
2022/07/29 07:02:24;;;;;;;18.15;12.55;;;;;;;14.54;100.00;101249.94;5081425;28;20092;-82
2022/07/29 07:04:50;;;;;;;19.85;12.02;;;;;;;14.45;100.00;101243.38;5064432;28;20024;-82
2022/07/29 07:07:15;;;;;;;17.88;12.25;;;;;;;14.56;100.00;101264.47;5047043;28;20282;-82
2022/07/29 07:09:41;;;;;;;20.05;12.52;;;;;;;14.63;100.00;101253.81;5097601;28;20036;-82
2022/07/29 07:12:06;;;;;;;25.23;14.48;;;;;;;14.73;100.00;101259.34;5065285;28;20039;-82
2022/07/29 07:14:32;;;;;;;18.77;11.10;;;;;;;14.69;100.00;101264.25;5059784;28;20449;-81
2022/07/29 07:17:00;;;;;;;18.23;10.88;;;;;;;14.82;100.00;101288.81;5065731;28;20043;-81
2022/07/29 07:19:26;;;;;;;21.95;11.20;;;;;;;14.82;100.00;101291.59;5080315;28;20043;-81
2022/07/29 07:21:55;;;;;;;16.65;10.98;;;;;;;14.96;100.00;101296.72;5044384;28;20048;-81
2022/07/29 07:24:20;;;;;;;22.52;11.20;;;;;;;15.03;100.00;101297.03;5052676;28;20054;-83
2022/07/29 07:26:46;;;;;;;21.73;11.07;;;;;;;15.06;100.00;101299.53;5050368;28;20032;-83
2022/07/29 07:29:12;;;;;;;15.25;9.93;;;;;;;15.19;100.00;101310.31;5049776;28;20028;-83
2022/07/29 07:31:38;;;;;;;15.90;10.55;;;;;;;15.31;100.00;101311.94;5078592;28;20043;-83
2022/07/29 07:34:04;;;;;;;12.95;10.82;;;;;;;15.56;100.00;101313.31;5069439;28;20403;-85
2022/07/29 07:36:29;;;;;;;14.95;9.05;;;;;;;15.50;100.00;101311.09;5085132;28;20028;-83
2022/07/29 07:38:55;;;;;;;13.90;9.93;;;;;;;15.52;100.00;101306.31;5049338;28;20039;-83
2022/07/29 07:41:22;;;;;;;15.52;9.98;;;;;;;15.78;100.00;101314.94;5068905;28;20027;-83
2022/07/29 07:43:48;;;;;;;16.27;10.00;;;;;;;15.81;100.00;101305.53;5068757;28;20471;-83
2022/07/29 07:46:14;;;;;;;13.10;9.20;;;;;;;16.16;100.00;101317.84;5065495;28;20024;-83
2022/07/29 07:48:40;;;;;;;16.45;8.65;;;;;;;16.55;100.00;101328.84;5065565;28;20035;-83
2022/07/29 07:51:06;;;;;;;12.73;8.43;;;;;;;16.56;100.00;101333.38;5083434;28;20037;-83
2022/07/29 07:53:31;;;;;;;12.02;9.43;;;;;;;16.64;100.00;101336.28;5065175;28;20028;-82
2022/07/29 07:55:57;;;;;;;11.95;8.88;;;;;;;16.56;100.00;101332.47;5061402;28;20040;-82
2022/07/29 07:58:22;;;;;;;14.63;9.93;;;;;;;16.79;100.00;101320.06;5084208;28;20142;-81
2022/07/29 08:00:48;;;;;;;12.35;8.75;;;;;;;16.89;100.00;101314.53;5067046;28;20026;-82
2022/07/29 08:03:13;;;;;;;17.38;9.02;;;;;;;16.82;100.00;101324.41;5080417;28;20056;-81
2022/07/29 08:05:40;;;;;;;12.48;8.63;;;;;;;16.80;100.00;101324.56;5046427;28;20490;-80
2022/07/29 08:08:06;;;;;;;12.73;8.85;;;;;;;17.08;100.00;101331.03;5095013;28;20437;-81
2022/07/29 08:13:21;;;;;;;14.35;8.02;;;;;;;17.58;100.00;101328.88;5097016;28;20495;-81
2022/07/29 08:15:47;;;;;;;9.73;7.05;;;;;;;18.39;100.00;101333.50;5092583;28;20032;-81
2022/07/29 08:18:13;;;;;;;12.77;7.53;;;;;;;18.71;100.00;101326.47;5056555;28;20089;-81
2022/07/29 08:20:39;;;;;;;12.57;6.68;;;;;;;19.11;100.00;101336.06;5071488;28;20563;-81
2022/07/29 08:23:08;;;;;;;9.00;6.70;;;;;;;19.27;100.00;101327.81;5077201;28;20058;-81
2022/07/29 08:25:35;;;;;;;14.45;5.50;;;;;;;19.33;100.00;101330.97;5076273;28;20070;-81
2022/07/29 08:28:01;;;;;;;12.75;6.18;;;;;;;19.65;100.00;101328.28;5073361;28;20476;-80
2022/07/29 08:30:27;;;;;;;11.32;5.55;;;;;;;19.86;100.00;101335.34;5066516;28;20080;-81
2022/07/29 08:32:52;;;;;;;8.88;6.25;;;;;;;20.69;100.00;101320.41;5094443;28;20036;-81
2022/07/29 08:35:19;;;;;;;11.25;5.72;;;;;;;19.95;100.00;101319.53;5094854;28;20056;-81
2022/07/29 08:37:45;;;;;;;12.27;5.32;;;;;;;20.49;100.00;101321.78;5076663;28;20063;-81
2022/07/29 08:40:11;;;;;;;11.65;6.45;;;;;;;20.20;100.00;101312.94;5060646;28;20153;-81
2022/07/29 08:42:37;;;;;;;10.93;5.60;;;;;;;20.49;100.00;101305.97;5093742;28;20111;-81
2022/07/29 08:45:04;;;;;;;11.40;6.05;;;;;;;19.72;100.00;101316.50;5060394;28;20460;-81
2022/07/29 08:47:30;;;;;;;14.43;5.88;;;;;;;20.40;100.00;101320.94;5076206;28;20036;-80
2022/07/29 08:49:55;;;;;;;8.05;5.82;;;;;;;19.95;100.00;101313.97;5046379;28;20039;-80
2022/07/29 08:52:24;;;;;;;10.55;6.22;;;;;;;19.72;100.00;101319.28;5057187;28;20066;-80
2022/07/29 08:54:51;;;;;;;8.05;5.80;;;;;;;19.74;100.00;101314.41;5057021;28;20024;-80
2022/07/29 08:57:19;;;;;;;11.68;6.72;;;;;;;19.90;100.00;101321.94;5072662;28;20055;-81
2022/07/29 08:59:47;;;;;;;8.23;6.18;;;;;;;20.37;100.00;101326.84;5076852;28;20035;-81
2022/07/29 09:02:21;;;;;;;8.95;5.93;;;;;;;20.74;100.00;101331.88;5076441;28;20032;-80
2022/07/29 09:04:47;;;;;;;11.75;7.07;;;;;;;20.80;100.00;101340.56;5075516;28;20050;-82
2022/07/29 09:07:18;;;;;;;7.88;6.93;;;;;;;20.97;100.00;101333.91;5094277;28;20111;-79
2022/07/29 09:09:45;;;;;;;6.90;5.50;;;;;;;21.71;100.00;101328.06;5042753;28;20032;-80
2022/07/29 09:12:13;;;;;;;8.82;5.30;;;;;;;22.08;100.00;101337.56;5076471;28;20387;-79
2022/07/29 09:14:40;;;;;;;11.10;5.88;;;;;;;21.55;100.00;101336.53;5075201;28;20050;-81
2022/07/29 09:17:06;;;;;;;10.07;6.43;;;;;;;21.42;100.00;101334.28;5077165;28;20040;-79
2022/07/29 09:19:37;;;;;;;7.03;5.93;;;;;;;21.27;100.00;101331.38;5060478;28;20372;-80
2022/07/29 09:22:06;;;;;;;13.20;5.95;;;;;;;21.63;100.00;101325.31;5095608;28;20105;-80
2022/07/29 09:24:38;;;;;;;9.70;5.75;;;;;;;21.60;100.00;101334.06;5059481;28;20040;-80
2022/07/29 09:27:19;;;;;;;8.80;5.63;;;;;;;22.00;100.00;101327.31;5068121;28;20040;-80
2022/07/29 09:29:44;;;;;;;10.90;6.10;;;;;;;21.88;100.00;101333.53;5074397;28;20371;-80
2022/07/29 09:32:12;;;;;;;13.68;5.90;;;;;;;21.54;100.00;101331.97;5056738;28;20103;-79
2022/07/29 09:34:38;;;;;;;12.73;6.68;;;;;;;21.83;100.00;101334.94;5073858;28;20048;-79
2022/07/29 09:37:05;;;;;;;11.90;6.00;;;;;;;22.33;100.00;101338.28;5058505;28;20062;-80
2022/07/29 09:39:43;;;;;;;9.10;5.90;;;;;;;22.08;100.00;101343.13;5057067;28;20036;-79
2022/07/29 09:42:10;;;;;;;11.90;5.68;;;;;;;22.33;100.00;101346.66;5075577;28;20484;-80
2022/07/29 09:44:46;;;;;;;7.22;5.10;;;;;;;22.31;100.00;101339.50;5060528;28;20043;-79
2022/07/29 09:47:12;;;;;;;8.45;5.25;;;;;;;22.57;100.00;101342.75;5063430;28;20035;-80
2022/07/29 09:49:57;;;;;;;14.65;5.93;;;;;;;22.36;100.00;101339.81;5079315;28;20391;-80
2022/07/29 09:52:24;;;;;;;8.40;5.28;;;;;;;22.60;100.00;101337.88;5077048;28;20043;-80
2022/07/29 09:54:50;;;;;;;7.75;5.68;;;;;;;22.87;100.00;101340.00;5046351;28;20024;-80
2022/07/29 09:57:26;;;;;;;5.82;5.28;;;;;;;23.06;100.00;101343.31;5062878;28;20047;-79
2022/07/29 10:00:08;;;;;;;8.32;5.22;;;;;;;22.98;100.00;101341.47;5094209;28;20514;-79
2022/07/29 10:02:35;;;;;;;10.10;5.72;;;;;;;23.17;100.00;101345.69;5079357;28;20471;-80
2022/07/29 10:05:03;;;;;;;6.10;5.38;;;;;;;23.26;100.00;101336.13;5062923;28;20035;-80
2022/07/29 10:07:47;;;;;;;9.43;5.03;;;;;;;23.01;100.00;101343.03;5064040;28;20036;-80
2022/07/29 10:10:41;;;;;;;6.28;4.90;;;;;;;23.72;100.00;101337.78;5097154;28;20039;-80
2022/07/29 10:13:12;;;;;;;8.82;5.57;;;;;;;23.68;100.00;101333.66;5065566;28;20056;-80
2022/07/29 10:15:40;;;;;;;7.25;4.88;;;;;;;23.58;100.00;101333.06;5079649;28;20510;-80
2022/07/29 10:18:07;;;;;;;11.05;5.70;;;;;;;24.01;100.00;101325.66;5097994;28;20395;-80
2022/07/29 10:20:34;;;;;;;6.53;5.18;;;;;;;23.91;100.00;101329.84;5079019;28;20123;-81
2022/07/29 10:23:00;;;;;;;8.02;5.68;;;;;;;23.85;100.00;101323.97;5079906;28;20036;-80
2022/07/29 10:25:26;;;;;;;8.68;5.55;;;;;;;23.65;100.00;101328.47;5062397;28;20031;-80
2022/07/29 10:27:53;;;;;;;7.45;4.05;;;;;;;24.05;100.00;101323.31;5030313;28;20036;-80
2022/07/29 10:30:20;;;;;;;5.13;4.45;;;;;;;24.03;100.00;101317.06;5042159;28;20395;-79
2022/07/29 10:33:07;;;;;;;6.63;4.65;;;;;;;24.08;100.00;101328.53;5059230;28;20126;-79
2022/07/29 10:35:45;;;;;;;7.72;4.97;;;;;;;23.66;100.00;101325.47;5076715;28;20052;-80
2022/07/29 10:38:31;;;;;;;8.18;5.22;;;;;;;24.68;100.00;101325.47;5060982;28;20020;-80
2022/07/29 10:41:27;;;;;;;9.07;5.50;;;;;;;25.04;100.00;101330.00;5065797;28;20036;-80
2022/07/29 10:44:08;;;;;;;6.93;4.78;;;;;;;25.13;100.00;101332.44;5062910;28;20083;-80
2022/07/29 10:46:39;;;;;;;9.23;4.40;;;;;;;24.45;100.00;101329.31;5077466;28;20463;-80
2022/07/29 10:49:15;;;;;;;7.28;4.07;;;;;;;24.35;100.00;101323.19;5078819;28;20475;-80
2022/07/29 10:51:59;;;;;;;8.20;4.70;;;;;;;25.35;100.00;101325.91;5073792;28;20032;-79
2022/07/29 10:54:37;;;;;;;8.05;3.90;;;;;;;25.13;100.00;101326.81;5075094;28;20480;-80
2022/07/29 10:57:12;;;;;;;6.10;4.55;;;;;;;24.41;100.00;101322.38;5049734;28;20086;-80
2022/07/29 10:59:58;;;;;;;7.38;4.50;;;;;;;24.78;100.00;101317.56;5059642;28;20032;-81
2022/07/29 11:02:33;;;;;;;7.50;4.45;;;;;;;25.24;100.00;101316.97;5048087;28;20136;-81
2022/07/29 11:05:06;;;;;;;11.70;4.45;;;;;;;25.07;100.00;101322.06;5096987;28;20528;-81
2022/07/29 11:07:36;;;;;;;5.40;3.10;;;;;;;26.18;93.80;101314.53;5078552;28;20036;-80
2022/07/29 11:10:20;;;;;;;5.53;3.63;;;;;;;24.58;100.00;101318.28;5078461;28;20024;-81
2022/07/29 11:12:47;;;;;;;10.23;4.07;;;;;;;24.89;100.00;101310.50;5059601;28;20364;-78
2022/07/29 11:15:18;;;;;;;6.85;4.03;;;;;;;25.00;100.00;101318.34;5030456;28;20051;-79
2022/07/29 11:17:53;;;;;;;5.60;5.07;;;;;;;24.38;100.00;101315.28;5090134;28;20032;-79
2022/07/29 11:20:35;;;;;;;8.35;4.85;;;;;;;24.00;100.00;101321.13;5078441;28;20035;-80
2022/07/29 11:23:16;;;;;;;12.15;5.40;;;;;;;24.54;100.00;101314.09;5074430;28;20024;-80